sensor_id;sensor_type;location;lat;lon;timestamp;temperature;humidity
14727;DHT22;7454;51.256;8.176;2023-03-11T00:00:59;1.00;78.70
14727;DHT22;7454;51.256;8.176;2023-03-11T00:03:25;1.00;78.50
14727;DHT22;7454;51.256;8.176;2023-03-11T00:05:52;1.00;78.50
14727;DHT22;7454;51.256;8.176;2023-03-11T00:08:19;1.00;78.60
14727;DHT22;7454;51.256;8.176;2023-03-11T00:10:49;1.00;78.60
14727;DHT22;7454;51.256;8.176;2023-03-11T00:13:16;1.00;78.60
14727;DHT22;7454;51.256;8.176;2023-03-11T00:15:44;1.00;78.50
14727;DHT22;7454;51.256;8.176;2023-03-11T00:18:11;1.00;78.50
14727;DHT22;7454;51.256;8.176;2023-03-11T00:20:38;1.00;78.50
14727;DHT22;7454;51.256;8.176;2023-03-11T00:23:06;1.00;78.60
14727;DHT22;7454;51.256;8.176;2023-03-11T00:25:33;1.00;78.30
14727;DHT22;7454;51.256;8.176;2023-03-11T00:28:00;1.00;78.40
14727;DHT22;7454;51.256;8.176;2023-03-11T00:30:25;1.00;78.20
14727;DHT22;7454;51.256;8.176;2023-03-11T00:32:52;0.90;78.40
14727;DHT22;7454;51.256;8.176;2023-03-11T00:35:20;0.90;78.50
14727;DHT22;7454;51.256;8.176;2023-03-11T00:37:51;0.90;78.20
14727;DHT22;7454;51.256;8.176;2023-03-11T00:40:18;0.90;78.10
14727;DHT22;7454;51.256;8.176;2023-03-11T00:42:44;0.90;78.20
14727;DHT22;7454;51.256;8.176;2023-03-11T00:45:10;0.90;78.20
14727;DHT22;7454;51.256;8.176;2023-03-11T00:47:36;0.90;78.10
14727;DHT22;7454;51.256;8.176;2023-03-11T00:50:02;0.90;78.30
14727;DHT22;7454;51.256;8.176;2023-03-11T00:52:28;0.90;78.00
14727;DHT22;7454;51.256;8.176;2023-03-11T00:54:54;0.90;77.90
14727;DHT22;7454;51.256;8.176;2023-03-11T00:57:20;0.90;77.90
14727;DHT22;7454;51.256;8.176;2023-03-11T00:59:46;0.90;78.20
14727;DHT22;7454;51.256;8.176;2023-03-11T01:02:12;0.90;78.30
14727;DHT22;7454;51.256;8.176;2023-03-11T01:04:38;0.90;78.10
14727;DHT22;7454;51.256;8.176;2023-03-11T01:07:03;0.90;78.10
14727;DHT22;7454;51.256;8.176;2023-03-11T01:09:29;0.90;78.40
14727;DHT22;7454;51.256;8.176;2023-03-11T01:11:55;0.90;77.90
14727;DHT22;7454;51.256;8.176;2023-03-11T01:14:21;0.90;77.90
14727;DHT22;7454;51.256;8.176;2023-03-11T01:16:47;0.80;77.80
14727;DHT22;7454;51.256;8.176;2023-03-11T01:19:14;0.80;77.70
14727;DHT22;7454;51.256;8.176;2023-03-11T01:21:40;0.70;77.70
14727;DHT22;7454;51.256;8.176;2023-03-11T01:24:07;0.70;77.70
14727;DHT22;7454;51.256;8.176;2023-03-11T01:26:33;0.80;77.80
14727;DHT22;7454;51.256;8.176;2023-03-11T01:28:58;0.70;77.60
14727;DHT22;7454;51.256;8.176;2023-03-11T01:31:24;0.70;77.60
14727;DHT22;7454;51.256;8.176;2023-03-11T01:33:50;0.70;77.70
14727;DHT22;7454;51.256;8.176;2023-03-11T01:36:15;0.70;77.90
14727;DHT22;7454;51.256;8.176;2023-03-11T01:38:41;0.70;77.80
14727;DHT22;7454;51.256;8.176;2023-03-11T01:41:07;0.70;77.50
14727;DHT22;7454;51.256;8.176;2023-03-11T01:46:20;0.60;77.50
14727;DHT22;7454;51.256;8.176;2023-03-11T01:48:51;0.70;77.80
14727;DHT22;7454;51.256;8.176;2023-03-11T01:53:48;0.70;77.60
14727;DHT22;7454;51.256;8.176;2023-03-11T01:56:13;0.70;77.50
14727;DHT22;7454;51.256;8.176;2023-03-11T01:58:40;0.70;77.70
14727;DHT22;7454;51.256;8.176;2023-03-11T02:01:09;0.70;77.50
14727;DHT22;7454;51.256;8.176;2023-03-11T02:03:35;0.60;77.60
14727;DHT22;7454;51.256;8.176;2023-03-11T02:06:04;0.70;77.70
14727;DHT22;7454;51.256;8.176;2023-03-11T02:08:33;0.70;77.70
14727;DHT22;7454;51.256;8.176;2023-03-11T02:11:00;0.70;77.80
14727;DHT22;7454;51.256;8.176;2023-03-11T02:13:27;0.70;78.10
14727;DHT22;7454;51.256;8.176;2023-03-11T02:15:53;0.70;78.10
14727;DHT22;7454;51.256;8.176;2023-03-11T02:18:18;0.70;78.20
14727;DHT22;7454;51.256;8.176;2023-03-11T02:23:38;0.70;78.20
14727;DHT22;7454;51.256;8.176;2023-03-11T02:29:24;0.70;77.80
14727;DHT22;7454;51.256;8.176;2023-03-11T02:31:50;0.70;77.70
14727;DHT22;7454;51.256;8.176;2023-03-11T02:34:20;0.80;78.00
14727;DHT22;7454;51.256;8.176;2023-03-11T02:36:48;0.80;77.80
14727;DHT22;7454;51.256;8.176;2023-03-11T02:39:14;0.70;77.80
14727;DHT22;7454;51.256;8.176;2023-03-11T02:41:43;0.70;77.60
14727;DHT22;7454;51.256;8.176;2023-03-11T02:44:10;0.70;77.50
14727;DHT22;7454;51.256;8.176;2023-03-11T02:46:37;0.60;77.50
14727;DHT22;7454;51.256;8.176;2023-03-11T02:49:04;0.70;77.50
14727;DHT22;7454;51.256;8.176;2023-03-11T02:51:31;0.70;77.60
14727;DHT22;7454;51.256;8.176;2023-03-11T02:53:58;0.80;77.60
14727;DHT22;7454;51.256;8.176;2023-03-11T02:56:28;0.70;77.50
14727;DHT22;7454;51.256;8.176;2023-03-11T02:58:54;0.70;77.60
14727;DHT22;7454;51.256;8.176;2023-03-11T03:01:20;0.60;77.70
14727;DHT22;7454;51.256;8.176;2023-03-11T03:03:47;0.60;77.40
14727;DHT22;7454;51.256;8.176;2023-03-11T03:06:13;0.60;77.50
14727;DHT22;7454;51.256;8.176;2023-03-11T03:08:39;0.60;77.40
14727;DHT22;7454;51.256;8.176;2023-03-11T03:11:05;0.60;77.30
14727;DHT22;7454;51.256;8.176;2023-03-11T03:13:30;0.60;77.50
14727;DHT22;7454;51.256;8.176;2023-03-11T03:15:57;0.60;77.40
14727;DHT22;7454;51.256;8.176;2023-03-11T03:18:23;0.70;77.50
14727;DHT22;7454;51.256;8.176;2023-03-11T03:20:49;0.60;77.60
14727;DHT22;7454;51.256;8.176;2023-03-11T03:23:16;0.60;77.50
14727;DHT22;7454;51.256;8.176;2023-03-11T03:25:43;0.60;77.70
14727;DHT22;7454;51.256;8.176;2023-03-11T03:28:10;0.60;77.50
14727;DHT22;7454;51.256;8.176;2023-03-11T03:30:42;0.60;77.60
14727;DHT22;7454;51.256;8.176;2023-03-11T03:33:08;0.60;77.40
14727;DHT22;7454;51.256;8.176;2023-03-11T03:35:34;0.60;77.20
14727;DHT22;7454;51.256;8.176;2023-03-11T03:38:11;0.60;77.50
14727;DHT22;7454;51.256;8.176;2023-03-11T03:40:38;0.60;77.40
14727;DHT22;7454;51.256;8.176;2023-03-11T03:43:05;0.60;77.30
14727;DHT22;7454;51.256;8.176;2023-03-11T03:45:33;0.70;77.40
14727;DHT22;7454;51.256;8.176;2023-03-11T03:47:59;0.70;77.60
14727;DHT22;7454;51.256;8.176;2023-03-11T03:50:28;0.60;77.40
14727;DHT22;7454;51.256;8.176;2023-03-11T03:52:54;0.60;77.40
14727;DHT22;7454;51.256;8.176;2023-03-11T03:55:21;0.60;77.50
14727;DHT22;7454;51.256;8.176;2023-03-11T03:57:47;0.70;77.60
14727;DHT22;7454;51.256;8.176;2023-03-11T04:00:14;0.70;77.50
14727;DHT22;7454;51.256;8.176;2023-03-11T04:02:40;0.70;77.60
14727;DHT22;7454;51.256;8.176;2023-03-11T04:05:13;0.70;77.60
14727;DHT22;7454;51.256;8.176;2023-03-11T04:07:40;0.70;77.60
14727;DHT22;7454;51.256;8.176;2023-03-11T04:10:06;0.70;77.60
14727;DHT22;7454;51.256;8.176;2023-03-11T04:12:32;0.70;77.50
14727;DHT22;7454;51.256;8.176;2023-03-11T04:14:58;0.70;77.50
14727;DHT22;7454;51.256;8.176;2023-03-11T04:17:24;0.70;77.40
14727;DHT22;7454;51.256;8.176;2023-03-11T04:19:52;0.70;77.40
14727;DHT22;7454;51.256;8.176;2023-03-11T04:22:17;0.70;77.30
14727;DHT22;7454;51.256;8.176;2023-03-11T04:24:43;0.70;77.20
14727;DHT22;7454;51.256;8.176;2023-03-11T04:27:09;0.60;77.10
14727;DHT22;7454;51.256;8.176;2023-03-11T04:29:35;0.60;77.30
14727;DHT22;7454;51.256;8.176;2023-03-11T04:32:01;0.60;77.40
14727;DHT22;7454;51.256;8.176;2023-03-11T04:34:27;0.60;77.30
14727;DHT22;7454;51.256;8.176;2023-03-11T04:36:53;0.70;77.50
14727;DHT22;7454;51.256;8.176;2023-03-11T04:39:22;0.60;77.40
14727;DHT22;7454;51.256;8.176;2023-03-11T04:41:49;0.70;77.50
14727;DHT22;7454;51.256;8.176;2023-03-11T04:44:18;0.70;77.60
14727;DHT22;7454;51.256;8.176;2023-03-11T04:46:44;0.70;77.40
14727;DHT22;7454;51.256;8.176;2023-03-11T04:49:10;0.70;77.30
14727;DHT22;7454;51.256;8.176;2023-03-11T04:51:36;0.70;77.50
14727;DHT22;7454;51.256;8.176;2023-03-11T04:54:02;0.80;77.80
14727;DHT22;7454;51.256;8.176;2023-03-11T04:56:29;0.80;77.50
14727;DHT22;7454;51.256;8.176;2023-03-11T04:58:54;0.80;77.60
14727;DHT22;7454;51.256;8.176;2023-03-11T05:01:22;0.70;77.40
14727;DHT22;7454;51.256;8.176;2023-03-11T05:03:48;0.80;77.50
14727;DHT22;7454;51.256;8.176;2023-03-11T05:06:13;0.70;77.50
14727;DHT22;7454;51.256;8.176;2023-03-11T05:08:39;0.80;77.50
14727;DHT22;7454;51.256;8.176;2023-03-11T05:11:05;0.70;77.50
14727;DHT22;7454;51.256;8.176;2023-03-11T05:13:31;0.70;77.40
14727;DHT22;7454;51.256;8.176;2023-03-11T05:15:57;0.80;77.70
14727;DHT22;7454;51.256;8.176;2023-03-11T05:18:23;0.70;77.40
14727;DHT22;7454;51.256;8.176;2023-03-11T05:20:50;0.70;77.40
14727;DHT22;7454;51.256;8.176;2023-03-11T05:23:17;0.70;77.50
14727;DHT22;7454;51.256;8.176;2023-03-11T05:25:43;0.60;77.30
14727;DHT22;7454;51.256;8.176;2023-03-11T05:28:09;0.60;77.30
14727;DHT22;7454;51.256;8.176;2023-03-11T05:30:39;0.70;77.50
14727;DHT22;7454;51.256;8.176;2023-03-11T05:33:05;0.70;77.30
14727;DHT22;7454;51.256;8.176;2023-03-11T05:35:30;0.70;77.50
14727;DHT22;7454;51.256;8.176;2023-03-11T05:37:56;0.70;77.50
14727;DHT22;7454;51.256;8.176;2023-03-11T05:40:25;0.70;77.40
14727;DHT22;7454;51.256;8.176;2023-03-11T05:42:51;0.80;77.30
14727;DHT22;7454;51.256;8.176;2023-03-11T05:45:16;0.80;77.20
14727;DHT22;7454;51.256;8.176;2023-03-11T05:47:44;0.70;77.00
14727;DHT22;7454;51.256;8.176;2023-03-11T05:50:12;0.70;77.10
14727;DHT22;7454;51.256;8.176;2023-03-11T05:52:38;0.80;77.30
14727;DHT22;7454;51.256;8.176;2023-03-11T05:55:04;0.80;77.30
14727;DHT22;7454;51.256;8.176;2023-03-11T05:57:31;0.80;77.30
14727;DHT22;7454;51.256;8.176;2023-03-11T05:59:57;0.70;77.10
14727;DHT22;7454;51.256;8.176;2023-03-11T06:02:23;0.70;77.20
14727;DHT22;7454;51.256;8.176;2023-03-11T06:04:48;0.70;77.00
14727;DHT22;7454;51.256;8.176;2023-03-11T06:07:15;0.60;77.20
14727;DHT22;7454;51.256;8.176;2023-03-11T06:09:43;0.70;77.20
14727;DHT22;7454;51.256;8.176;2023-03-11T06:12:13;0.70;77.20
14727;DHT22;7454;51.256;8.176;2023-03-11T06:14:53;0.70;77.10
14727;DHT22;7454;51.256;8.176;2023-03-11T06:17:18;0.80;77.10
14727;DHT22;7454;51.256;8.176;2023-03-11T06:19:44;0.70;76.90
14727;DHT22;7454;51.256;8.176;2023-03-11T06:22:10;0.70;76.90
14727;DHT22;7454;51.256;8.176;2023-03-11T06:24:36;0.70;76.90
14727;DHT22;7454;51.256;8.176;2023-03-11T06:27:02;0.70;76.90
14727;DHT22;7454;51.256;8.176;2023-03-11T06:29:29;0.80;77.20
14727;DHT22;7454;51.256;8.176;2023-03-11T06:31:54;0.80;77.10
14727;DHT22;7454;51.256;8.176;2023-03-11T06:34:20;0.80;77.00
14727;DHT22;7454;51.256;8.176;2023-03-11T06:36:48;0.80;77.00
14727;DHT22;7454;51.256;8.176;2023-03-11T06:39:14;0.80;76.80
14727;DHT22;7454;51.256;8.176;2023-03-11T06:41:41;0.80;76.80
14727;DHT22;7454;51.256;8.176;2023-03-11T06:44:09;0.80;77.00
14727;DHT22;7454;51.256;8.176;2023-03-11T06:46:36;0.80;76.90
14727;DHT22;7454;51.256;8.176;2023-03-11T06:49:02;0.80;77.00
14727;DHT22;7454;51.256;8.176;2023-03-11T06:51:29;0.90;76.90
14727;DHT22;7454;51.256;8.176;2023-03-11T06:53:54;0.90;76.80
14727;DHT22;7454;51.256;8.176;2023-03-11T06:56:21;0.90;76.80
14727;DHT22;7454;51.256;8.176;2023-03-11T06:58:53;0.90;76.90
14727;DHT22;7454;51.256;8.176;2023-03-11T07:01:21;0.90;77.10
14727;DHT22;7454;51.256;8.176;2023-03-11T07:03:48;1.00;76.90
14727;DHT22;7454;51.256;8.176;2023-03-11T07:06:16;1.00;76.90
14727;DHT22;7454;51.256;8.176;2023-03-11T07:08:44;1.00;76.50
14727;DHT22;7454;51.256;8.176;2023-03-11T07:11:13;1.00;76.80
14727;DHT22;7454;51.256;8.176;2023-03-11T07:13:40;1.00;77.00
14727;DHT22;7454;51.256;8.176;2023-03-11T07:16:07;1.00;77.00
14727;DHT22;7454;51.256;8.176;2023-03-11T07:18:37;1.00;76.70
14727;DHT22;7454;51.256;8.176;2023-03-11T07:21:03;1.00;76.60
14727;DHT22;7454;51.256;8.176;2023-03-11T07:23:30;1.00;76.70
14727;DHT22;7454;51.256;8.176;2023-03-11T07:25:56;1.10;76.70
14727;DHT22;7454;51.256;8.176;2023-03-11T07:28:23;1.10;76.70
14727;DHT22;7454;51.256;8.176;2023-03-11T07:30:49;1.20;76.80
14727;DHT22;7454;51.256;8.176;2023-03-11T07:33:14;1.10;76.70
14727;DHT22;7454;51.256;8.176;2023-03-11T07:35:40;1.10;76.60
14727;DHT22;7454;51.256;8.176;2023-03-11T07:38:06;1.10;76.70
14727;DHT22;7454;51.256;8.176;2023-03-11T07:40:32;1.20;76.60
14727;DHT22;7454;51.256;8.176;2023-03-11T07:42:58;1.20;76.20
14727;DHT22;7454;51.256;8.176;2023-03-11T07:45:24;1.20;76.40
14727;DHT22;7454;51.256;8.176;2023-03-11T07:47:50;1.20;76.50
14727;DHT22;7454;51.256;8.176;2023-03-11T07:50:15;1.20;76.20
14727;DHT22;7454;51.256;8.176;2023-03-11T07:52:42;1.20;76.10
14727;DHT22;7454;51.256;8.176;2023-03-11T07:55:08;1.20;76.20
14727;DHT22;7454;51.256;8.176;2023-03-11T07:57:34;1.10;76.20
14727;DHT22;7454;51.256;8.176;2023-03-11T07:59:59;1.10;76.30
14727;DHT22;7454;51.256;8.176;2023-03-11T08:02:25;1.10;75.90
14727;DHT22;7454;51.256;8.176;2023-03-11T08:04:51;1.10;76.10
14727;DHT22;7454;51.256;8.176;2023-03-11T08:07:16;1.20;76.40
14727;DHT22;7454;51.256;8.176;2023-03-11T08:09:42;1.20;76.30
14727;DHT22;7454;51.256;8.176;2023-03-11T08:12:08;1.30;76.40
14727;DHT22;7454;51.256;8.176;2023-03-11T08:14:33;1.30;76.00
14727;DHT22;7454;51.256;8.176;2023-03-11T08:16:59;1.30;75.90
14727;DHT22;7454;51.256;8.176;2023-03-11T08:19:25;1.30;75.60
14727;DHT22;7454;51.256;8.176;2023-03-11T08:21:50;1.30;75.70
14727;DHT22;7454;51.256;8.176;2023-03-11T08:24:16;1.30;75.90
14727;DHT22;7454;51.256;8.176;2023-03-11T08:26:41;1.30;75.90
14727;DHT22;7454;51.256;8.176;2023-03-11T08:29:07;1.30;75.40
14727;DHT22;7454;51.256;8.176;2023-03-11T08:31:33;1.20;75.60
14727;DHT22;7454;51.256;8.176;2023-03-11T08:34:03;1.10;75.40
14727;DHT22;7454;51.256;8.176;2023-03-11T08:36:31;1.10;75.00
14727;DHT22;7454;51.256;8.176;2023-03-11T08:38:57;1.10;75.20
14727;DHT22;7454;51.256;8.176;2023-03-11T08:41:22;1.10;75.50
14727;DHT22;7454;51.256;8.176;2023-03-11T08:43:48;1.10;75.20
14727;DHT22;7454;51.256;8.176;2023-03-11T08:46:35;1.10;75.30
14727;DHT22;7454;51.256;8.176;2023-03-11T08:49:02;1.10;75.40
14727;DHT22;7454;51.256;8.176;2023-03-11T08:51:29;1.10;75.40
14727;DHT22;7454;51.256;8.176;2023-03-11T08:53:56;1.10;75.40
14727;DHT22;7454;51.256;8.176;2023-03-11T08:56:22;1.10;75.50
14727;DHT22;7454;51.256;8.176;2023-03-11T08:58:47;1.20;75.40
14727;DHT22;7454;51.256;8.176;2023-03-11T09:01:13;1.20;75.70
14727;DHT22;7454;51.256;8.176;2023-03-11T09:03:39;1.20;75.50
14727;DHT22;7454;51.256;8.176;2023-03-11T09:06:06;1.20;75.10
14727;DHT22;7454;51.256;8.176;2023-03-11T09:08:33;1.20;74.90
14727;DHT22;7454;51.256;8.176;2023-03-11T09:10:59;1.20;74.80
14727;DHT22;7454;51.256;8.176;2023-03-11T09:13:25;1.10;75.00
14727;DHT22;7454;51.256;8.176;2023-03-11T09:15:51;1.10;75.20
14727;DHT22;7454;51.256;8.176;2023-03-11T09:18:17;1.10;75.10
14727;DHT22;7454;51.256;8.176;2023-03-11T09:20:43;1.10;75.10
14727;DHT22;7454;51.256;8.176;2023-03-11T09:23:11;1.20;75.50
14727;DHT22;7454;51.256;8.176;2023-03-11T09:25:37;1.30;75.00
14727;DHT22;7454;51.256;8.176;2023-03-11T09:28:03;1.30;75.00
14727;DHT22;7454;51.256;8.176;2023-03-11T09:30:29;1.40;74.70
14727;DHT22;7454;51.256;8.176;2023-03-11T09:32:55;1.40;74.50
14727;DHT22;7454;51.256;8.176;2023-03-11T09:35:21;1.50;74.60
14727;DHT22;7454;51.256;8.176;2023-03-11T09:37:46;1.50;73.90
14727;DHT22;7454;51.256;8.176;2023-03-11T09:40:14;1.40;73.50
14727;DHT22;7454;51.256;8.176;2023-03-11T09:45:31;1.50;74.10
14727;DHT22;7454;51.256;8.176;2023-03-11T09:48:08;1.60;73.50
14727;DHT22;7454;51.256;8.176;2023-03-11T09:50:44;1.60;73.50
14727;DHT22;7454;51.256;8.176;2023-03-11T09:53:31;1.70;73.60
14727;DHT22;7454;51.256;8.176;2023-03-11T09:56:06;1.90;73.60
14727;DHT22;7454;51.256;8.176;2023-03-11T09:58:49;1.90;72.50
14727;DHT22;7454;51.256;8.176;2023-03-11T10:01:17;1.90;73.10
14727;DHT22;7454;51.256;8.176;2023-03-11T10:03:46;1.90;72.60
14727;DHT22;7454;51.256;8.176;2023-03-11T10:06:14;2.00;72.80
14727;DHT22;7454;51.256;8.176;2023-03-11T10:08:42;2.00;72.30
14727;DHT22;7454;51.256;8.176;2023-03-11T10:16:43;2.20;72.80
14727;DHT22;7454;51.256;8.176;2023-03-11T10:19:18;2.30;72.90
14727;DHT22;7454;51.256;8.176;2023-03-11T10:21:52;2.30;73.10
14727;DHT22;7454;51.256;8.176;2023-03-11T10:24:35;2.30;72.40
14727;DHT22;7454;51.256;8.176;2023-03-11T10:27:17;2.30;72.60
14727;DHT22;7454;51.256;8.176;2023-03-11T10:29:49;2.30;72.40
14727;DHT22;7454;51.256;8.176;2023-03-11T10:34:52;2.30;72.30
14727;DHT22;7454;51.256;8.176;2023-03-11T10:37:23;2.40;72.80
14727;DHT22;7454;51.256;8.176;2023-03-11T10:39:50;2.50;72.30
14727;DHT22;7454;51.256;8.176;2023-03-11T10:42:21;2.50;72.30
14727;DHT22;7454;51.256;8.176;2023-03-11T10:44:48;2.50;72.70
14727;DHT22;7454;51.256;8.176;2023-03-11T10:47:16;2.50;72.90
14727;DHT22;7454;51.256;8.176;2023-03-11T10:49:45;2.50;72.70
14727;DHT22;7454;51.256;8.176;2023-03-11T10:52:11;2.50;72.70
14727;DHT22;7454;51.256;8.176;2023-03-11T10:54:41;2.70;72.20
14727;DHT22;7454;51.256;8.176;2023-03-11T10:57:23;2.70;71.40
14727;DHT22;7454;51.256;8.176;2023-03-11T10:59:55;2.70;71.80
14727;DHT22;7454;51.256;8.176;2023-03-11T11:07:39;2.80;71.90
14727;DHT22;7454;51.256;8.176;2023-03-11T11:10:13;2.80;72.50
14727;DHT22;7454;51.256;8.176;2023-03-11T11:12:51;2.80;72.70
14727;DHT22;7454;51.256;8.176;2023-03-11T11:15:31;2.70;70.40
14727;DHT22;7454;51.256;8.176;2023-03-11T11:17:59;2.60;70.90
14727;DHT22;7454;51.256;8.176;2023-03-11T11:20:27;2.70;71.90
14727;DHT22;7454;51.256;8.176;2023-03-11T11:22:54;2.70;71.50
14727;DHT22;7454;51.256;8.176;2023-03-11T11:27:55;2.80;73.10
14727;DHT22;7454;51.256;8.176;2023-03-11T11:30:23;2.90;72.10
14727;DHT22;7454;51.256;8.176;2023-03-11T11:32:49;2.90;72.30
14727;DHT22;7454;51.256;8.176;2023-03-11T11:35:19;2.90;72.00
14727;DHT22;7454;51.256;8.176;2023-03-11T11:37:50;2.80;70.90
14727;DHT22;7454;51.256;8.176;2023-03-11T11:40:20;2.80;71.00
14727;DHT22;7454;51.256;8.176;2023-03-11T11:42:50;2.90;71.60
14727;DHT22;7454;51.256;8.176;2023-03-11T11:45:25;2.90;72.20
14727;DHT22;7454;51.256;8.176;2023-03-11T11:47:57;3.00;72.10
14727;DHT22;7454;51.256;8.176;2023-03-11T11:50:31;2.90;72.50
14727;DHT22;7454;51.256;8.176;2023-03-11T11:53:02;2.90;71.80
14727;DHT22;7454;51.256;8.176;2023-03-11T11:55:33;2.90;72.50
14727;DHT22;7454;51.256;8.176;2023-03-11T11:58:00;2.90;72.00
14727;DHT22;7454;51.256;8.176;2023-03-11T12:00:36;2.90;71.40
14727;DHT22;7454;51.256;8.176;2023-03-11T12:09:02;2.90;69.90
14727;DHT22;7454;51.256;8.176;2023-03-11T12:11:38;3.00;69.40
14727;DHT22;7454;51.256;8.176;2023-03-11T12:27:46;3.30;69.50
14727;DHT22;7454;51.256;8.176;2023-03-11T12:30:15;3.40;70.60
14727;DHT22;7454;51.256;8.176;2023-03-11T12:32:52;3.50;70.40
14727;DHT22;7454;51.256;8.176;2023-03-11T12:35:23;3.50;70.30
14727;DHT22;7454;51.256;8.176;2023-03-11T12:37:56;3.50;70.50
14727;DHT22;7454;51.256;8.176;2023-03-11T12:41:01;3.50;70.60
14727;DHT22;7454;51.256;8.176;2023-03-11T12:45:58;3.60;70.50
14727;DHT22;7454;51.256;8.176;2023-03-11T12:50:57;3.60;69.90
14727;DHT22;7454;51.256;8.176;2023-03-11T12:56:27;3.70;70.90
14727;DHT22;7454;51.256;8.176;2023-03-11T12:59:17;3.70;70.40
14727;DHT22;7454;51.256;8.176;2023-03-11T13:07:54;3.60;69.80
14727;DHT22;7454;51.256;8.176;2023-03-11T13:13:00;3.70;70.20
14727;DHT22;7454;51.256;8.176;2023-03-11T13:15:30;3.80;69.80
14727;DHT22;7454;51.256;8.176;2023-03-11T13:17:59;3.90;69.60
14727;DHT22;7454;51.256;8.176;2023-03-11T13:28:48;3.90;68.80
14727;DHT22;7454;51.256;8.176;2023-03-11T13:34:12;4.00;68.90
14727;DHT22;7454;51.256;8.176;2023-03-11T13:44:52;4.00;69.50
14727;DHT22;7454;51.256;8.176;2023-03-11T13:47:18;4.00;69.10
14727;DHT22;7454;51.256;8.176;2023-03-11T13:49:48;4.00;68.90
14727;DHT22;7454;51.256;8.176;2023-03-11T13:52:35;4.00;68.30
14727;DHT22;7454;51.256;8.176;2023-03-11T13:57:31;4.00;68.60
14727;DHT22;7454;51.256;8.176;2023-03-11T14:00:06;4.00;69.10
14727;DHT22;7454;51.256;8.176;2023-03-11T14:02:43;3.90;69.10
14727;DHT22;7454;51.256;8.176;2023-03-11T14:05:12;4.00;69.10
14727;DHT22;7454;51.256;8.176;2023-03-11T14:07:40;3.90;69.00
14727;DHT22;7454;51.256;8.176;2023-03-11T14:10:26;4.00;68.60
14727;DHT22;7454;51.256;8.176;2023-03-11T14:13:03;3.90;69.00
14727;DHT22;7454;51.256;8.176;2023-03-11T14:15:30;4.00;68.80
14727;DHT22;7454;51.256;8.176;2023-03-11T14:20:51;4.10;70.20
14727;DHT22;7454;51.256;8.176;2023-03-11T14:23:18;4.20;70.20
14727;DHT22;7454;51.256;8.176;2023-03-11T14:25:44;4.20;69.10
14727;DHT22;7454;51.256;8.176;2023-03-11T14:28:17;4.10;69.40
14727;DHT22;7454;51.256;8.176;2023-03-11T14:30:57;4.10;68.60
14727;DHT22;7454;51.256;8.176;2023-03-11T14:33:24;4.10;67.60
14727;DHT22;7454;51.256;8.176;2023-03-11T14:35:51;4.10;68.40
14727;DHT22;7454;51.256;8.176;2023-03-11T14:38:21;4.10;67.80
14727;DHT22;7454;51.256;8.176;2023-03-11T14:40:49;4.00;67.30
14727;DHT22;7454;51.256;8.176;2023-03-11T14:43:16;3.90;67.50
14727;DHT22;7454;51.256;8.176;2023-03-11T14:45:44;3.80;67.30
14727;DHT22;7454;51.256;8.176;2023-03-11T14:50:47;3.70;66.80
14727;DHT22;7454;51.256;8.176;2023-03-11T14:53:24;3.70;66.30
14727;DHT22;7454;51.256;8.176;2023-03-11T14:55:55;3.70;66.70
14727;DHT22;7454;51.256;8.176;2023-03-11T14:58:27;3.70;67.30
14727;DHT22;7454;51.256;8.176;2023-03-11T15:06:23;3.80;66.30
14727;DHT22;7454;51.256;8.176;2023-03-11T15:08:58;3.90;65.90
14727;DHT22;7454;51.256;8.176;2023-03-11T15:11:26;3.90;64.80
14727;DHT22;7454;51.256;8.176;2023-03-11T15:13:53;3.90;65.50
14727;DHT22;7454;51.256;8.176;2023-03-11T15:16:21;4.00;66.80
14727;DHT22;7454;51.256;8.176;2023-03-11T15:18:47;4.00;66.60
14727;DHT22;7454;51.256;8.176;2023-03-11T15:21:14;4.00;66.60
14727;DHT22;7454;51.256;8.176;2023-03-11T15:24:01;4.00;66.40
14727;DHT22;7454;51.256;8.176;2023-03-11T15:26:30;4.00;66.20
14727;DHT22;7454;51.256;8.176;2023-03-11T15:28:58;4.00;65.60
14727;DHT22;7454;51.256;8.176;2023-03-11T15:31:27;4.10;66.10
14727;DHT22;7454;51.256;8.176;2023-03-11T15:34:06;4.10;66.20
14727;DHT22;7454;51.256;8.176;2023-03-11T15:36:42;4.10;65.10
14727;DHT22;7454;51.256;8.176;2023-03-11T15:44:32;4.10;66.50
14727;DHT22;7454;51.256;8.176;2023-03-11T15:47:06;4.10;66.50
14727;DHT22;7454;51.256;8.176;2023-03-11T15:49:36;4.10;66.10
14727;DHT22;7454;51.256;8.176;2023-03-11T15:52:02;4.10;66.60
14727;DHT22;7454;51.256;8.176;2023-03-11T15:54:28;4.20;67.40
14727;DHT22;7454;51.256;8.176;2023-03-11T15:56:54;4.20;67.20
14727;DHT22;7454;51.256;8.176;2023-03-11T15:59:20;4.10;66.70
14727;DHT22;7454;51.256;8.176;2023-03-11T16:01:46;4.10;66.40
14727;DHT22;7454;51.256;8.176;2023-03-11T16:04:13;4.10;67.00
14727;DHT22;7454;51.256;8.176;2023-03-11T16:06:40;4.00;66.90
14727;DHT22;7454;51.256;8.176;2023-03-11T16:09:06;4.00;66.90
14727;DHT22;7454;51.256;8.176;2023-03-11T16:11:32;3.90;66.40
14727;DHT22;7454;51.256;8.176;2023-03-11T16:13:58;3.80;66.10
14727;DHT22;7454;51.256;8.176;2023-03-11T16:16:24;3.70;66.40
14727;DHT22;7454;51.256;8.176;2023-03-11T16:18:50;3.60;66.10
14727;DHT22;7454;51.256;8.176;2023-03-11T16:21:16;3.60;66.00
14727;DHT22;7454;51.256;8.176;2023-03-11T16:23:43;3.50;66.20
14727;DHT22;7454;51.256;8.176;2023-03-11T16:26:10;3.50;66.50
14727;DHT22;7454;51.256;8.176;2023-03-11T16:28:36;3.50;66.70
14727;DHT22;7454;51.256;8.176;2023-03-11T16:31:02;3.50;66.50
14727;DHT22;7454;51.256;8.176;2023-03-11T16:33:28;3.40;66.40
14727;DHT22;7454;51.256;8.176;2023-03-11T16:35:53;3.40;66.70
14727;DHT22;7454;51.256;8.176;2023-03-11T16:38:19;3.30;66.90
14727;DHT22;7454;51.256;8.176;2023-03-11T16:40:54;3.40;67.00
14727;DHT22;7454;51.256;8.176;2023-03-11T16:43:21;3.30;66.80
14727;DHT22;7454;51.256;8.176;2023-03-11T16:45:47;3.30;67.00
14727;DHT22;7454;51.256;8.176;2023-03-11T16:48:13;3.30;67.30
14727;DHT22;7454;51.256;8.176;2023-03-11T16:50:38;3.30;67.50
14727;DHT22;7454;51.256;8.176;2023-03-11T16:53:05;3.20;68.00
14727;DHT22;7454;51.256;8.176;2023-03-11T16:55:30;3.30;69.00
14727;DHT22;7454;51.256;8.176;2023-03-11T16:57:56;3.20;68.50
14727;DHT22;7454;51.256;8.176;2023-03-11T17:00:22;3.20;68.70
14727;DHT22;7454;51.256;8.176;2023-03-11T17:02:49;3.20;69.60
14727;DHT22;7454;51.256;8.176;2023-03-11T17:05:15;3.10;69.80
14727;DHT22;7454;51.256;8.176;2023-03-11T17:07:40;3.10;70.30
14727;DHT22;7454;51.256;8.176;2023-03-11T17:10:07;3.10;70.70
14727;DHT22;7454;51.256;8.176;2023-03-11T17:12:33;3.10;71.00
14727;DHT22;7454;51.256;8.176;2023-03-11T17:15:00;3.00;71.10
14727;DHT22;7454;51.256;8.176;2023-03-11T17:17:26;3.00;71.90
14727;DHT22;7454;51.256;8.176;2023-03-11T17:19:51;2.90;71.70
14727;DHT22;7454;51.256;8.176;2023-03-11T17:22:17;2.90;71.80
14727;DHT22;7454;51.256;8.176;2023-03-11T17:24:43;2.90;72.70
14727;DHT22;7454;51.256;8.176;2023-03-11T17:27:09;2.80;74.00
14727;DHT22;7454;51.256;8.176;2023-03-11T17:29:34;2.80;74.40
14727;DHT22;7454;51.256;8.176;2023-03-11T17:32:00;2.70;74.80
14727;DHT22;7454;51.256;8.176;2023-03-11T17:34:27;2.70;74.80
14727;DHT22;7454;51.256;8.176;2023-03-11T17:36:52;2.60;74.70
14727;DHT22;7454;51.256;8.176;2023-03-11T17:39:18;2.60;74.70
14727;DHT22;7454;51.256;8.176;2023-03-11T17:41:44;2.60;75.20
14727;DHT22;7454;51.256;8.176;2023-03-11T17:44:10;2.60;75.30
14727;DHT22;7454;51.256;8.176;2023-03-11T17:46:37;2.60;75.60
14727;DHT22;7454;51.256;8.176;2023-03-11T17:49:04;2.50;75.90
14727;DHT22;7454;51.256;8.176;2023-03-11T17:51:30;2.40;75.90